Time;durP1;ratioP1;P1;durP2;ratioP2;P2;SDS_P1;SDS_P2;PMS_P1;PMS_P2;Temp;Humidity;BMP_temperature;BMP_pressure;BME280_temperature;BME280_humidity;BME280_pressure;Samples;Min_cycle;Max_cycle;Signal;HPM_P1;HPM_P2
2020/12/18 00:01:22;;;;;;;33.47;6.75;;;15.10;56.50;;;;;;5096524;28;20032;-75
2020/12/18 00:03:51;;;;;;;30.65;7.45;;;15.20;56.20;;;;;;5086189;28;20016;-75
2020/12/18 00:06:17;;;;;;;26.98;6.55;;;15.00;56.30;;;;;;5108167;28;20522;-74
2020/12/18 00:08:44;;;;;;;30.60;5.22;;;15.00;56.50;;;;;;5083884;28;21412;-75
2020/12/18 00:11:11;;;;;;;34.40;7.78;;;14.80;57.20;;;;;;5090788;28;20037;-75
2020/12/18 00:13:37;;;;;;;27.02;5.78;;;14.80;57.30;;;;;;5084285;28;20028;-75
2020/12/18 00:16:03;;;;;;;26.13;6.22;;;14.80;57.30;;;;;;5084803;28;20020;-74
2020/12/18 00:18:30;;;;;;;29.73;6.72;;;14.60;57.40;;;;;;5088385;28;20028;-75
2020/12/18 00:20:56;;;;;;;29.23;7.22;;;14.60;57.90;;;;;;5093356;28;20047;-74
2020/12/18 00:23:23;;;;;;;39.58;6.57;;;14.70;57.60;;;;;;5095879;28;20081;-75
2020/12/18 00:25:49;;;;;;;26.80;6.95;;;14.60;58.30;;;;;;5087406;28;20029;-74
2020/12/18 00:28:17;;;;;;;30.67;9.05;;;14.70;57.40;;;;;;5081601;28;20097;-75
2020/12/18 00:30:44;;;;;;;29.15;7.30;;;14.50;57.90;;;;;;5085441;28;20028;-75
2020/12/18 00:33:10;;;;;;;30.27;8.35;;;14.50;58.10;;;;;;5096787;28;20499;-75
2020/12/18 00:35:37;;;;;;;31.60;8.63;;;14.70;57.10;;;;;;5099177;28;20085;-75
2020/12/18 00:38:03;;;;;;;32.60;7.97;;;14.70;57.10;;;;;;5097103;28;20024;-74
2020/12/18 00:40:30;;;;;;;34.78;8.15;;;14.50;57.90;;;;;;5099262;28;20484;-75
2020/12/18 00:42:58;;;;;;;29.27;6.45;;;14.40;58.60;;;;;;5090231;28;20020;-75
2020/12/18 00:45:24;;;;;;;28.98;6.35;;;14.40;58.30;;;;;;5084217;28;20020;-74
2020/12/18 00:47:51;;;;;;;30.92;6.70;;;14.20;58.80;;;;;;5093698;28;20526;-75
2020/12/18 00:50:18;;;;;;;32.33;7.03;;;14.20;59.20;;;;;;5096596;28;20153;-75
2020/12/18 00:52:44;;;;;;;30.13;6.97;;;14.10;59.30;;;;;;5088322;28;20050;-74
2020/12/18 00:55:11;;;;;;;27.65;6.82;;;14.00;59.60;;;;;;5101464;28;20031;-74
2020/12/18 00:57:37;;;;;;;31.52;5.88;;;13.90;60.10;;;;;;5090565;28;20129;-74
2020/12/18 01:00:07;;;;;;;28.20;5.85;;;14.00;59.60;;;;;;5090354;28;20031;-74
2020/12/18 01:02:34;;;;;;;34.22;6.60;;;13.90;59.70;;;;;;5091111;28;20016;-75
2020/12/18 01:05:00;;;;;;;33.13;7.20;;;13.70;60.40;;;;;;5100873;28;20016;-75
2020/12/18 01:07:27;;;;;;;26.83;5.28;;;13.80;60.00;;;;;;5101443;28;20024;-75
2020/12/18 01:09:53;;;;;;;36.42;7.55;;;13.80;60.10;;;;;;5093162;28;20097;-74
2020/12/18 01:12:19;;;;;;;32.53;8.15;;;13.70;60.20;;;;;;5093290;28;20024;-74
2020/12/18 01:14:46;;;;;;;27.55;6.82;;;13.60;60.90;;;;;;5099242;28;20043;-75
2020/12/18 01:17:13;;;;;;;34.83;7.40;;;13.60;61.00;;;;;;5095696;28;20054;-75
2020/12/18 01:19:40;;;;;;;34.85;8.80;;;13.60;61.10;;;;;;5094818;28;20319;-74
2020/12/18 01:22:06;;;;;;;36.47;9.82;;;13.50;61.30;;;;;;5098962;28;20494;-74
2020/12/18 01:24:33;;;;;;;36.47;8.80;;;13.50;61.10;;;;;;5096740;28;20069;-74
2020/12/18 01:26:59;;;;;;;28.58;6.60;;;13.60;60.80;;;;;;5087559;28;20047;-74
2020/12/18 01:29:26;;;;;;;32.90;6.25;;;13.30;61.50;;;;;;5094792;28;20035;-76
2020/12/18 01:31:52;;;;;;;32.50;6.88;;;13.30;61.30;;;;;;5093722;28;20042;-75
2020/12/18 01:34:19;;;;;;;39.15;9.82;;;13.30;61.50;;;;;;5086308;28;21421;-74
2020/12/18 01:36:45;;;;;;;32.05;6.15;;;13.30;61.50;;;;;;5099330;28;20024;-75
2020/12/18 01:39:12;;;;;;;28.60;6.90;;;13.20;61.70;;;;;;5110409;28;20371;-74
2020/12/18 01:41:38;;;;;;;26.75;6.30;;;13.30;61.30;;;;;;5102829;28;20020;-75
2020/12/18 01:44:05;;;;;;;32.50;7.72;;;13.20;61.50;;;;;;5110335;28;20111;-74
2020/12/18 01:46:31;;;;;;;23.88;6.68;;;13.20;61.10;;;;;;5110501;28;20035;-76
2020/12/18 01:48:59;;;;;;;38.13;6.57;;;13.20;61.20;;;;;;5117993;28;20036;-76
2020/12/18 01:51:26;;;;;;;31.42;7.50;;;13.30;60.90;;;;;;5109994;28;20024;-77
2020/12/18 01:53:54;;;;;;;20.15;4.65;;;13.30;60.90;;;;;;5115777;28;20012;-74
2020/12/18 01:56:23;;;;;;;34.47;8.32;;;13.20;60.90;;;;;;5099348;28;20019;-75
2020/12/18 01:58:52;;;;;;;32.85;7.22;;;13.30;60.70;;;;;;5097307;28;20099;-74
2020/12/18 02:01:19;;;;;;;27.38;5.97;;;13.20;60.00;;;;;;5099981;28;20033;-74
2020/12/18 02:03:45;;;;;;;32.13;6.70;;;13.20;60.70;;;;;;5097879;28;20365;-74
2020/12/18 02:06:17;;;;;;;34.85;8.75;;;13.10;60.70;;;;;;5114038;28;20032;-75
2020/12/18 02:08:44;;;;;;;23.23;6.93;;;13.00;60.60;;;;;;5100208;28;20110;-74
2020/12/18 02:11:20;;;;;;;15.82;6.03;;;13.00;61.10;;;;;;5100124;28;20039;-75
2020/12/18 02:13:49;;;;;;;24.88;6.00;;;12.90;61.40;;;;;;5101334;28;20027;-74
2020/12/18 02:16:16;;;;;;;18.70;5.13;;;12.70;61.60;;;;;;5098625;28;20104;-74
2020/12/18 02:18:43;;;;;;;27.92;5.00;;;12.70;61.60;;;;;;5103236;28;20019;-74
2020/12/18 02:21:09;;;;;;;34.38;7.60;;;12.60;61.50;;;;;;5105774;28;21298;-74
2020/12/18 02:23:40;;;;;;;28.23;6.28;;;12.60;61.30;;;;;;5092523;28;20110;-74
2020/12/18 02:26:09;;;;;;;35.17;6.25;;;12.60;61.00;;;;;;5094418;28;20032;-74
2020/12/18 02:28:37;;;;;;;35.67;10.30;;;12.50;61.80;;;;;;5091768;28;20028;-74
2020/12/18 02:31:04;;;;;;;39.65;9.18;;;12.60;61.10;;;;;;5096532;28;20476;-75
2020/12/18 02:33:31;;;;;;;31.98;8.27;;;12.50;61.00;;;;;;5094147;28;20024;-75
2020/12/18 02:36:01;;;;;;;38.40;7.80;;;12.50;60.90;;;;;;5084801;28;20020;-74
2020/12/18 02:38:28;;;;;;;34.05;8.13;;;12.50;60.80;;;;;;5092815;28;20342;-76
2020/12/18 02:40:55;;;;;;;31.15;9.48;;;12.50;62.00;;;;;;5113277;28;20024;-75
2020/12/18 02:43:22;;;;;;;27.85;6.95;;;12.40;62.10;;;;;;5096427;28;20474;-74
2020/12/18 02:45:49;;;;;;;27.48;7.32;;;12.30;62.20;;;;;;5107388;28;20062;-75
2020/12/18 02:48:16;;;;;;;30.85;9.10;;;12.30;62.60;;;;;;5101484;28;20377;-75
2020/12/18 02:50:42;;;;;;;40.80;9.23;;;12.30;62.50;;;;;;5101522;28;20035;-75
2020/12/18 02:53:17;;;;;;;30.88;7.63;;;12.30;62.50;;;;;;5102538;28;20039;-76
2020/12/18 02:55:44;;;;;;;38.13;8.60;;;12.20;62.40;;;;;;5100779;28;20088;-74
2020/12/18 02:58:11;;;;;;;31.80;8.05;;;12.20;61.30;;;;;;5087536;28;20035;-75
2020/12/18 03:00:39;;;;;;;36.05;8.13;;;12.20;62.50;;;;;;5081425;28;20039;-75
2020/12/18 03:03:07;;;;;;;33.60;7.50;;;12.20;61.60;;;;;;5088537;28;20034;-75
2020/12/18 03:05:34;;;;;;;42.33;11.23;;;12.20;62.60;;;;;;5085221;28;20038;-74
2020/12/18 03:08:01;;;;;;;27.38;8.00;;;12.20;61.50;;;;;;5093614;28;20031;-75
2020/12/18 03:10:27;;;;;;;38.22;7.60;;;12.20;61.90;;;;;;5088704;28;20028;-74
2020/12/18 03:12:54;;;;;;;28.08;7.15;;;12.20;62.00;;;;;;5092083;28;20016;-74
2020/12/18 03:15:21;;;;;;;22.83;5.65;;;12.10;61.60;;;;;;5081629;28;20024;-74
2020/12/18 03:17:48;;;;;;;35.72;8.30;;;12.10;61.80;;;;;;5083344;28;20025;-74
2020/12/18 03:20:14;;;;;;;41.28;6.90;;;12.10;61.80;;;;;;5079192;28;20017;-75
2020/12/18 03:22:41;;;;;;;33.30;7.88;;;12.10;61.80;;;;;;5096982;28;20031;-75
2020/12/18 03:25:07;;;;;;;31.50;7.35;;;12.10;61.90;;;;;;5085992;28;20035;-75
2020/12/18 03:27:34;;;;;;;35.72;7.65;;;12.10;62.10;;;;;;5086193;28;20027;-75
2020/12/18 03:30:00;;;;;;;35.75;7.72;;;12.10;62.40;;;;;;5089423;28;20025;-74
2020/12/18 03:32:27;;;;;;;32.33;7.90;;;12.00;62.20;;;;;;5085867;28;20020;-75
2020/12/18 03:34:53;;;;;;;34.83;7.07;;;12.00;62.40;;;;;;5096881;28;20093;-76
2020/12/18 03:37:20;;;;;;;28.33;6.68;;;12.00;62.70;;;;;;5095095;28;20031;-75
2020/12/18 03:39:46;;;;;;;41.75;7.05;;;11.90;62.60;;;;;;5097523;28;20536;-75
2020/12/18 03:42:13;;;;;;;28.45;6.70;;;12.00;63.00;;;;;;5094108;28;20113;-74
2020/12/18 03:44:39;;;;;;;28.02;5.30;;;12.00;62.70;;;;;;5087960;28;20028;-74
2020/12/18 03:47:06;;;;;;;34.65;8.30;;;11.90;62.90;;;;;;5084009;28;20075;-75
2020/12/18 03:49:32;;;;;;;34.40;8.20;;;11.90;63.40;;;;;;5083357;28;20111;-75
2020/12/18 03:51:58;;;;;;;32.25;7.13;;;11.90;63.00;;;;;;5088373;28;20024;-75
2020/12/18 03:54:25;;;;;;;45.05;8.27;;;11.90;63.30;;;;;;5086182;28;20080;-74
2020/12/18 03:56:51;;;;;;;33.90;7.25;;;11.90;63.40;;;;;;5095126;28;20027;-75
2020/12/18 03:59:18;;;;;;;34.40;6.90;;;12.00;63.40;;;;;;5097424;28;20044;-76
2020/12/18 04:01:44;;;;;;;31.35;7.18;;;11.90;63.20;;;;;;5090703;28;20484;-75
2020/12/18 04:04:11;;;;;;;32.60;8.70;;;11.80;63.20;;;;;;5092732;28;20111;-76
2020/12/18 04:06:37;;;;;;;34.35;6.18;;;11.80;63.30;;;;;;5097690;28;20012;-75
2020/12/18 04:09:04;;;;;;;32.72;6.93;;;11.70;63.30;;;;;;5094495;28;20067;-74
2020/12/18 04:11:30;;;;;;;34.53;6.68;;;11.70;63.50;;;;;;5089480;28;20042;-76
2020/12/18 04:13:57;;;;;;;32.08;6.28;;;11.60;63.70;;;;;;5085332;28;20047;-76
2020/12/18 04:16:26;;;;;;;29.60;7.57;;;11.60;63.70;;;;;;5088473;28;20038;-75
2020/12/18 04:18:52;;;;;;;43.58;7.78;;;11.70;63.80;;;;;;5089229;28;20414;-75
2020/12/18 04:21:18;;;;;;;34.05;7.88;;;11.70;64.20;;;;;;5088171;28;20032;-76
2020/12/18 04:23:45;;;;;;;35.15;8.80;;;11.70;64.30;;;;;;5085598;28;20119;-75
2020/12/18 04:26:12;;;;;;;33.33;7.55;;;11.70;64.20;;;;;;5086407;28;20024;-75
2020/12/18 04:28:38;;;;;;;28.35;7.00;;;11.60;64.30;;;;;;5093896;28;20032;-75
2020/12/18 04:31:05;;;;;;;36.13;7.57;;;11.70;64.30;;;;;;5089034;28;20369;-76
2020/12/18 04:33:31;;;;;;;31.48;8.25;;;11.60;64.20;;;;;;5084420;28;20476;-76
2020/12/18 04:35:57;;;;;;;40.38;7.35;;;11.60;64.20;;;;;;5087131;28;20024;-76
2020/12/18 04:38:24;;;;;;;34.83;7.10;;;11.50;64.10;;;;;;5097121;28;20106;-75
2020/12/18 04:40:51;;;;;;;34.05;6.50;;;11.50;64.40;;;;;;5098521;28;20097;-76
2020/12/18 04:43:18;;;;;;;34.13;6.47;;;11.30;64.60;;;;;;5098821;28;20032;-75
2020/12/18 04:45:46;;;;;;;33.88;7.60;;;11.40;64.80;;;;;;5082406;28;20050;-75
2020/12/18 04:48:13;;;;;;;29.08;6.55;;;11.50;64.90;;;;;;5094102;28;20032;-75
2020/12/18 04:50:40;;;;;;;38.47;8.30;;;11.50;65.50;;;;;;5091547;28;20028;-76
2020/12/18 04:53:10;;;;;;;44.15;8.65;;;11.50;64.90;;;;;;5091259;28;20019;-74
2020/12/18 04:55:43;;;;;;;35.88;7.55;;;11.50;64.40;;;;;;5091789;28;20446;-76
2020/12/18 04:58:10;;;;;;;25.42;8.75;;;11.40;64.90;;;;;;5096399;28;20106;-76
2020/12/18 05:00:37;;;;;;;24.73;6.80;;;11.40;64.90;;;;;;5096104;28;20020;-76
2020/12/18 05:03:04;;;;;;;36.97;9.27;;;11.40;65.00;;;;;;5078997;28;20024;-76
2020/12/18 05:05:31;;;;;;;28.60;6.93;;;11.40;65.40;;;;;;5112739;28;20111;-75
2020/12/18 05:07:57;;;;;;;30.63;6.80;;;11.40;64.80;;;;;;5097724;28;20032;-76
2020/12/18 05:10:23;;;;;;;33.80;8.20;;;11.30;64.90;;;;;;5095427;28;20052;-75
2020/12/18 05:12:50;;;;;;;33.65;7.43;;;11.30;65.20;;;;;;5095632;28;20028;-75
2020/12/18 05:15:16;;;;;;;27.40;6.82;;;11.30;65.00;;;;;;5091131;28;20104;-75
2020/12/18 05:17:47;;;;;;;29.02;8.98;;;11.10;65.10;;;;;;5091208;28;20124;-75
2020/12/18 05:20:13;;;;;;;26.42;6.75;;;11.00;65.60;;;;;;5093815;28;20024;-75
2020/12/18 05:22:40;;;;;;;29.98;6.05;;;11.10;65.80;;;;;;5092343;28;20017;-75
2020/12/18 05:25:08;;;;;;;35.40;7.75;;;11.00;65.70;;;;;;5088754;28;20439;-75
2020/12/18 05:27:39;;;;;;;30.50;8.27;;;11.10;65.90;;;;;;5079394;28;20021;-76
2020/12/18 05:30:07;;;;;;;33.83;8.82;;;11.10;66.30;;;;;;5090148;28;20020;-76
2020/12/18 05:32:35;;;;;;;25.08;7.95;;;11.10;65.90;;;;;;5100675;28;20080;-76
2020/12/18 05:35:01;;;;;;;25.33;7.63;;;11.10;66.30;;;;;;5097316;28;20471;-76
2020/12/18 05:37:38;;;;;;;25.30;6.03;;;11.10;66.20;;;;;;5087838;28;20032;-76
2020/12/18 05:40:08;;;;;;;28.13;7.15;;;11.00;66.30;;;;;;5086743;28;20021;-76
2020/12/18 05:42:42;;;;;;;31.27;8.02;;;11.00;66.50;;;;;;5090054;28;20031;-76
2020/12/18 05:45:19;;;;;;;24.40;5.60;;;11.00;66.30;;;;;;5086216;28;21018;-76
2020/12/18 05:47:59;;;;;;;34.92;6.90;;;11.00;66.10;;;;;;5089121;28;20066;-76
2020/12/18 05:50:31;;;;;;;22.45;6.00;;;11.00;66.20;;;;;;5093698;28;20039;-76
2020/12/18 05:52:59;;;;;;;29.20;7.78;;;10.90;66.40;;;;;;5095880;28;20423;-76
2020/12/18 05:55:26;;;;;;;25.10;5.47;;;11.00;66.60;;;;;;5098630;28;20020;-76
2020/12/18 05:57:54;;;;;;;31.20;7.20;;;11.00;66.30;;;;;;5093814;28;20055;-76
2020/12/18 06:00:22;;;;;;;26.63;5.35;;;10.90;66.50;;;;;;5088574;28;20031;-76
2020/12/18 06:03:02;;;;;;;20.52;5.47;;;10.90;66.30;;;;;;5091075;28;20446;-76
2020/12/18 06:05:31;;;;;;;30.40;5.13;;;10.90;66.40;;;;;;5101898;28;20461;-76
2020/12/18 06:07:59;;;;;;;23.65;8.43;;;10.90;66.50;;;;;;5099485;28;20106;-76
2020/12/18 06:10:26;;;;;;;18.17;4.80;;;10.90;66.30;;;;;;5100273;28;20024;-76
2020/12/18 06:13:02;;;;;;;18.70;5.45;;;10.80;66.50;;;;;;5118856;28;20438;-76
2020/12/18 06:15:31;;;;;;;20.52;5.30;;;10.80;66.50;;;;;;5102144;28;20354;-76
2020/12/18 06:18:03;;;;;;;24.08;7.22;;;10.80;66.50;;;;;;5091053;28;20081;-74
2020/12/18 06:20:34;;;;;;;22.35;5.47;;;10.90;66.30;;;;;;5097967;28;20016;-76
2020/12/18 06:23:03;;;;;;;26.08;6.45;;;10.90;66.40;;;;;;5096889;28;20415;-76
2020/12/18 06:25:30;;;;;;;20.80;5.65;;;10.80;66.30;;;;;;5090055;28;20036;-76
2020/12/18 06:27:58;;;;;;;25.30;5.20;;;10.80;66.00;;;;;;5089919;28;20044;-76
2020/12/18 06:30:26;;;;;;;20.95;5.18;;;10.80;66.30;;;;;;5093451;28;20024;-76
2020/12/18 06:32:53;;;;;;;25.30;5.68;;;10.80;66.50;;;;;;5090763;28;20021;-75
2020/12/18 06:35:33;;;;;;;19.95;5.15;;;10.70;67.10;;;;;;5088966;28;20028;-76
2020/12/18 06:38:15;;;;;;;21.38;4.80;;;10.70;66.50;;;;;;5097623;28;20016;-76
2020/12/18 06:40:42;;;;;;;16.88;5.25;;;10.70;66.30;;;;;;5088191;28;20029;-75
2020/12/18 06:43:09;;;;;;;18.05;5.53;;;10.80;66.50;;;;;;5096761;28;20058;-75
2020/12/18 06:45:36;;;;;;;21.08;5.72;;;10.80;66.30;;;;;;5080503;28;20028;-75
2020/12/18 06:48:25;;;;;;;26.08;6.05;;;10.60;66.40;;;;;;5095001;28;20378;-76
2020/12/18 06:50:55;;;;;;;17.60;5.00;;;10.60;66.20;;;;;;5100063;28;20103;-76
2020/12/18 06:53:21;;;;;;;16.70;4.53;;;10.60;66.40;;;;;;5096659;28;20034;-76
2020/12/18 06:55:48;;;;;;;17.83;4.43;;;10.60;66.50;;;;;;5096559;28;20041;-75
2020/12/18 06:58:17;;;;;;;18.35;4.72;;;10.50;66.50;;;;;;5092520;28;20042;-76
2020/12/18 07:00:43;;;;;;;22.98;6.20;;;10.50;66.80;;;;;;5096176;28;20400;-76
2020/12/18 07:03:30;;;;;;;14.45;4.55;;;10.60;66.40;;;;;;5099954;28;20024;-76
2020/12/18 07:06:04;;;;;;;15.75;5.57;;;10.50;66.30;;;;;;5092248;28;20103;-76
2020/12/18 07:08:36;;;;;;;22.50;3.78;;;10.50;66.70;;;;;;5088877;28;20036;-75
2020/12/18 07:11:09;;;;;;;22.65;6.93;;;10.50;66.60;;;;;;5095121;28;20028;-76
2020/12/18 07:13:35;;;;;;;;;;;10.30;66.70;;;;;;5093689;28;20035;-76
2020/12/18 07:16:06;;;;;;;16.10;4.35;;;10.30;67.30;;;;;;5094765;28;20284;-75
2020/12/18 07:18:36;;;;;;;20.58;5.95;;;10.30;67.40;;;;;;5093540;28;20021;-76
2020/12/18 07:21:14;;;;;;;14.73;5.75;;;10.40;67.10;;;;;;5085205;28;20028;-75
2020/12/18 07:23:46;;;;;;;9.35;3.70;;;10.50;67.20;;;;;;5086901;28;20028;-75
2020/12/18 07:26:14;;;;;;;14.50;4.82;;;10.50;66.60;;;;;;5099382;28;20020;-75
2020/12/18 07:28:41;;;;;;;11.55;4.00;;;10.40;66.90;;;;;;5100629;28;20095;-75
2020/12/18 07:31:22;;;;;;;12.30;4.00;;;10.40;67.70;;;;;;5100358;28;20050;-76
2020/12/18 07:34:00;;;;;;;15.40;4.35;;;10.20;67.00;;;;;;5090611;28;20016;-76
2020/12/18 07:36:28;;;;;;;10.60;3.78;;;10.20;67.70;;;;;;5099693;28;20032;-76
2020/12/18 07:38:59;;;;;;;12.90;4.38;;;10.10;67.60;;;;;;5100387;28;20024;-76
2020/12/18 07:41:29;;;;;;;13.30;4.63;;;10.10;67.90;;;;;;5100936;28;20028;-76
2020/12/18 07:44:09;;;;;;;13.68;4.78;;;10.10;67.70;;;;;;5103581;28;20093;-75
2020/12/18 07:46:38;;;;;;;19.90;4.47;;;10.10;67.90;;;;;;5099861;28;20031;-75
2020/12/18 07:49:09;;;;;;;9.40;4.13;;;10.20;67.40;;;;;;5104187;28;20028;-76
2020/12/18 07:51:39;;;;;;;19.33;5.15;;;10.20;67.50;;;;;;5105685;28;20091;-75
2020/12/18 07:54:07;;;;;;;18.80;4.88;;;10.20;67.40;;;;;;5105111;28;20056;-75
2020/12/18 07:56:33;;;;;;;17.10;5.43;;;10.10;67.40;;;;;;5098540;28;20024;-75
2020/12/18 07:59:05;;;;;;;8.90;4.00;;;10.10;67.40;;;;;;5096467;28;20473;-75
2020/12/18 08:01:34;;;;;;;9.73;3.75;;;10.00;67.30;;;;;;5093031;28;20157;-75
2020/12/18 08:04:02;;;;;;;15.05;3.90;;;10.10;67.80;;;;;;5095954;28;20055;-76
2020/12/18 08:06:34;;;;;;;9.18;4.10;;;10.00;67.50;;;;;;5111005;28;20034;-75
2020/12/18 08:09:03;;;;;;;9.32;4.00;;;9.90;67.90;;;;;;5102158;28;20032;-76
2020/12/18 08:11:35;;;;;;;13.55;3.13;;;9.80;68.20;;;;;;5096696;28;20035;-74
2020/12/18 08:14:03;;;;;;;12.27;3.95;;;9.70;68.40;;;;;;5092355;28;20012;-76
2020/12/18 08:16:33;;;;;;;9.73;4.55;;;9.70;68.50;;;;;;5093248;28;20040;-75
2020/12/18 08:19:05;;;;;;;11.60;4.07;;;9.80;68.30;;;;;;5088175;28;20061;-76
2020/12/18 08:21:33;;;;;;;8.00;3.70;;;9.80;68.50;;;;;;5094948;28;20032;-76
2020/12/18 08:24:07;;;;;;;8.60;3.92;;;9.70;68.40;;;;;;5097417;28;20073;-76
2020/12/18 08:26:41;;;;;;;8.98;3.92;;;9.70;68.60;;;;;;5102463;28;20020;-76
2020/12/18 08:29:08;;;;;;;9.48;3.65;;;9.80;68.90;;;;;;5098254;28;20349;-75
2020/12/18 08:31:42;;;;;;;13.95;4.32;;;9.80;68.30;;;;;;5094840;28;20052;-76
2020/12/18 08:34:11;;;;;;;12.45;3.92;;;9.90;68.10;;;;;;5098273;28;20357;-76
2020/12/18 08:36:46;;;;;;;11.65;3.13;;;9.90;67.80;;;;;;5102088;28;20109;-76
2020/12/18 08:39:14;;;;;;;8.88;3.35;;;9.80;68.20;;;;;;5095322;28;20031;-75
2020/12/18 08:41:49;;;;;;;10.93;3.33;;;9.70;68.40;;;;;;5099261;28;20445;-76
2020/12/18 08:44:18;;;;;;;8.85;3.92;;;9.60;68.50;;;;;;5093952;28;20047;-76
2020/12/18 08:46:45;;;;;;;14.48;4.10;;;9.60;68.70;;;;;;5086078;28;20343;-75
2020/12/18 08:49:16;;;;;;;14.63;4.25;;;9.70;68.80;;;;;;5096104;28;20020;-76
2020/12/18 08:51:43;;;;;;;12.98;4.13;;;9.70;68.80;;;;;;5097406;28;20028;-76
2020/12/18 08:54:26;;;;;;;17.60;3.47;;;9.70;68.50;;;;;;5090581;28;20546;-75
2020/12/18 08:57:18;;;;;;;9.82;4.28;;;9.70;68.50;;;;;;5094640;28;20049;-76
2020/12/18 08:59:58;;;;;;;10.73;4.60;;;9.70;68.20;;;;;;5092814;28;20123;-76
2020/12/18 09:02:28;;;;;;;13.60;4.40;;;9.60;68.10;;;;;;5092741;28;20020;-76
2020/12/18 09:05:42;;;;;;;11.48;4.20;;;9.50;68.60;;;;;;5100336;28;20047;-76
2020/12/18 09:08:19;;;;;;;11.38;4.35;;;9.30;68.90;;;;;;5082850;28;20032;-76
2020/12/18 09:10:52;;;;;;;8.48;3.22;;;9.30;68.90;;;;;;5103245;28;20089;-75
2020/12/18 09:13:23;;;;;;;16.42;4.68;;;9.20;68.90;;;;;;5092566;28;20438;-76
2020/12/18 09:15:56;;;;;;;8.85;3.80;;;9.10;69.20;;;;;;5105292;28;20111;-76
2020/12/18 09:18:25;;;;;;;10.25;3.30;;;9.20;68.90;;;;;;5108922;28;20106;-76
2020/12/18 09:20:52;;;;;;;13.40;4.00;;;9.40;68.70;;;;;;5095676;28;20043;-75
2020/12/18 09:23:29;;;;;;;12.20;3.58;;;9.40;68.20;;;;;;5103422;28;20036;-76
2020/12/18 09:25:57;;;;;;;13.20;3.78;;;9.30;68.40;;;;;;5089674;28;20021;-76
2020/12/18 09:28:24;;;;;;;6.25;3.03;;;9.30;68.20;;;;;;5097233;28;20405;-76
2020/12/18 09:30:53;;;;;;;7.97;3.00;;;9.10;68.50;;;;;;5097761;28;20115;-76
2020/12/18 09:33:25;;;;;;;11.02;3.80;;;9.20;69.00;;;;;;5103620;28;20038;-76
2020/12/18 09:36:11;;;;;;;;;;;9.20;68.90;;;;;;5099035;28;20028;-76
2020/12/18 09:38:49;;;;;;;9.02;2.75;;;9.20;69.00;;;;;;5111349;27;19919;-76
2020/12/18 09:41:18;;;;;;;10.02;3.45;;;9.20;69.30;;;;;;5101223;28;20032;-75
2020/12/18 09:43:44;;;;;;;8.25;2.80;;;9.20;69.00;;;;;;5101856;28;20024;-76
2020/12/18 09:46:14;;;;;;;12.27;5.90;;;9.20;69.20;;;;;;5101154;28;20096;-76
2020/12/18 09:48:41;;;;;;;10.45;3.22;;;9.10;69.30;;;;;;5095533;28;20039;-75
2020/12/18 09:51:08;;;;;;;4.70;3.20;;;9.20;68.90;;;;;;5099181;28;20088;-76
2020/12/18 09:53:34;;;;;;;12.27;4.32;;;9.20;68.70;;;;;;5104109;28;20042;-75
2020/12/18 09:56:01;;;;;;;7.90;3.40;;;9.20;68.70;;;;;;5095342;28;20024;-75
2020/12/18 09:58:27;;;;;;;10.32;2.92;;;9.30;68.50;;;;;;5102425;28;20115;-76
2020/12/18 10:00:54;;;;;;;11.77;2.85;;;9.20;68.40;;;;;;5101316;28;20149;-76
2020/12/18 10:03:20;;;;;;;14.50;3.42;;;9.10;68.90;;;;;;5100994;28;20032;-76
2020/12/18 10:05:47;;;;;;;10.13;3.03;;;9.30;69.00;;;;;;5089969;28;20481;-76
2020/12/18 10:08:14;;;;;;;8.52;4.43;;;9.30;68.80;;;;;;5096444;28;20083;-76
2020/12/18 10:10:41;;;;;;;10.65;3.20;;;9.20;68.60;;;;;;5101810;28;20028;-76
2020/12/18 10:13:07;;;;;;;8.50;3.08;;;9.20;68.70;;;;;;5100896;28;20024;-76
2020/12/18 10:15:34;;;;;;;12.20;3.22;;;9.20;69.10;;;;;;5101595;28;20016;-76
2020/12/18 10:18:00;;;;;;;8.65;3.08;;;9.20;69.20;;;;;;5098045;28;20017;-76
2020/12/18 10:20:27;;;;;;;6.22;3.15;;;9.10;69.30;;;;;;5102602;28;20025;-76
2020/12/18 10:22:53;;;;;;;11.82;4.07;;;9.10;69.40;;;;;;5099994;28;20447;-76
2020/12/18 10:25:20;;;;;;;10.07;3.13;;;9.10;69.40;;;;;;5096752;28;20027;-76
2020/12/18 10:27:46;;;;;;;10.13;3.08;;;9.10;69.40;;;;;;5097336;28;20441;-76
2020/12/18 10:30:13;;;;;;;23.00;4.55;;;9.10;70.00;;;;;;5097800;28;20027;-76
2020/12/18 10:32:41;;;;;;;11.93;3.13;;;9.20;69.60;;;;;;5097502;28;20450;-76
2020/12/18 10:35:08;;;;;;;7.47;3.22;;;9.30;69.40;;;;;;5097458;28;20032;-76
2020/12/18 10:37:35;;;;;;;6.72;3.08;;;9.20;69.10;;;;;;5086263;28;20044;-76
2020/12/18 10:40:04;;;;;;;5.30;2.40;;;9.20;69.10;;;;;;5106421;28;20020;-78
2020/12/18 10:42:30;;;;;;;5.32;2.80;;;9.20;68.80;;;;;;5099186;28;20028;-76
2020/12/18 10:44:57;;;;;;;4.32;2.38;;;9.10;69.10;;;;;;5098015;28;20024;-76
2020/12/18 10:47:23;;;;;;;10.10;3.20;;;9.10;69.20;;;;;;5096391;28;20060;-76
2020/12/18 10:49:49;;;;;;;11.88;3.33;;;9.30;68.90;;;;;;5100249;28;20039;-76
2020/12/18 10:52:16;;;;;;;14.43;3.50;;;9.20;69.00;;;;;;5100337;28;20039;-76
2020/12/18 10:54:43;;;;;;;14.32;3.28;;;9.20;69.00;;;;;;5098216;28;20032;-76
2020/12/18 10:57:09;;;;;;;6.35;3.33;;;9.20;68.70;;;;;;5098096;28;20020;-76
2020/12/18 10:59:36;;;;;;;7.00;2.25;;;9.20;68.70;;;;;;5100530;28;20028;-76
2020/12/18 11:02:03;;;;;;;7.82;2.30;;;9.30;68.40;;;;;;5092449;28;20079;-76
2020/12/18 11:04:29;;;;;;;7.47;2.42;;;9.30;68.30;;;;;;5091870;28;20024;-76
2020/12/18 11:06:56;;;;;;;4.70;3.25;;;9.20;68.20;;;;;;5091740;28;20023;-76
2020/12/18 11:09:22;;;;;;;5.93;2.42;;;9.10;68.30;;;;;;5096957;28;20028;-76
2020/12/18 11:11:54;;;;;;;8.70;2.47;;;9.10;68.50;;;;;;5097591;28;20032;-76
2020/12/18 11:14:21;;;;;;;7.32;2.55;;;9.10;68.60;;;;;;5098637;28;20020;-76
2020/12/18 11:16:49;;;;;;;8.77;2.75;;;9.10;68.60;;;;;;5100016;28;20028;-76
2020/12/18 11:19:15;;;;;;;9.18;2.30;;;9.10;68.30;;;;;;5100051;28;20519;-76
2020/12/18 11:21:46;;;;;;;9.48;2.42;;;9.00;68.40;;;;;;5097585;28;20032;-76
2020/12/18 11:24:13;;;;;;;10.18;2.28;;;9.10;68.50;;;;;;5100697;28;20024;-76
2020/12/18 11:26:39;;;;;;;7.88;3.88;;;9.00;68.50;;;;;;5100086;28;20031;-76
2020/12/18 11:29:06;;;;;;;10.88;2.40;;;9.00;68.60;;;;;;5099355;28;20441;-76
2020/12/18 11:31:38;;;;;;;7.88;3.13;;;9.00;68.30;;;;;;5093975;28;20032;-76
2020/12/18 11:34:04;;;;;;;5.57;2.47;;;9.10;68.00;;;;;;5097184;28;20016;-76
2020/12/18 11:36:36;;;;;;;5.38;2.42;;;9.00;67.80;;;;;;5094353;28;20032;-76
2020/12/18 11:39:05;;;;;;;4.57;1.80;;;8.90;68.00;;;;;;5092248;28;20042;-76
2020/12/18 11:41:32;;;;;;;2.63;2.33;;;8.80;68.30;;;;;;5101170;28;20047;-76
2020/12/18 11:43:58;;;;;;;3.13;2.28;;;8.80;68.60;;;;;;5116514;28;20027;-76
2020/12/18 11:46:25;;;;;;;6.97;2.42;;;8.80;68.50;;;;;;5103695;28;20079;-76
2020/12/18 11:48:51;;;;;;;7.30;2.65;;;8.80;68.60;;;;;;5105692;28;20103;-76
2020/12/18 11:51:18;;;;;;;5.93;2.28;;;8.90;68.40;;;;;;5099111;28;20334;-76
2020/12/18 11:53:44;;;;;;;4.35;1.85;;;8.90;68.40;;;;;;5098315;28;20032;-76
2020/12/18 11:56:10;;;;;;;7.30;2.67;;;8.90;68.40;;;;;;5094681;28;20024;-76
2020/12/18 11:58:37;;;;;;;4.88;2.50;;;8.90;68.30;;;;;;5086740;28;20028;-76
2020/12/18 12:01:03;;;;;;;6.65;2.55;;;8.80;68.40;;;;;;5088092;28;20016;-76
2020/12/18 12:03:31;;;;;;;9.13;2.60;;;8.90;68.50;;;;;;5098720;28;20047;-76
2020/12/18 12:06:00;;;;;;;7.88;2.75;;;8.80;68.30;;;;;;5098940;28;20020;-76
2020/12/18 12:08:26;;;;;;;3.97;2.00;;;8.80;68.40;;;;;;5098963;28;20032;-75
2020/12/18 12:10:53;;;;;;;6.35;2.42;;;8.70;68.60;;;;;;5099354;28;20536;-76
2020/12/18 12:13:20;;;;;;;3.60;2.33;;;8.60;68.80;;;;;;5099679;28;20109;-74
2020/12/18 12:15:46;;;;;;;9.13;2.83;;;8.60;69.10;;;;;;5093883;28;20027;-75
2020/12/18 12:18:13;;;;;;;3.55;2.00;;;8.60;69.40;;;;;;5082105;28;20021;-75
2020/12/18 12:20:39;;;;;;;18.75;3.30;;;8.60;69.00;;;;;;5099875;28;20016;-76
2020/12/18 12:23:06;;;;;;;3.10;2.17;;;8.60;69.00;;;;;;5088341;28;20461;-75
2020/12/18 12:25:32;;;;;;;8.18;2.50;;;8.70;68.60;;;;;;5095506;28;20115;-76
2020/12/18 12:27:59;;;;;;;6.95;2.53;;;8.70;68.80;;;;;;5097312;28;20020;-75
2020/12/18 12:30:25;;;;;;;5.68;2.05;;;8.70;68.80;;;;;;5097511;28;20020;-75
2020/12/18 12:32:54;;;;;;;2.30;2.10;;;8.70;68.80;;;;;;5098755;28;20433;-75
2020/12/18 12:35:26;;;;;;;7.00;2.60;;;8.60;68.90;;;;;;5100059;28;20449;-76
2020/12/18 12:37:53;;;;;;;9.30;2.53;;;8.70;68.50;;;;;;5099734;28;20027;-75
2020/12/18 12:40:20;;;;;;;2.28;2.10;;;8.60;68.60;;;;;;5098149;28;20024;-75
2020/12/18 12:42:46;;;;;;;5.25;2.97;;;8.60;68.60;;;;;;5099912;28;20032;-75
2020/12/18 12:45:13;;;;;;;10.68;3.67;;;8.60;68.60;;;;;;5095363;28;20040;-75
2020/12/18 12:47:39;;;;;;;7.10;2.85;;;8.60;68.50;;;;;;5099857;28;20384;-76
2020/12/18 12:50:06;;;;;;;6.93;2.47;;;8.60;68.70;;;;;;5097009;28;20085;-75